This is the latest recevied weather packets stored in our database for station/object KMASWX. If no packets are shown the sender has not sent any weather packets the latest 10 day(s).
| Time | Temp. | Humidity | Pressure | Rain* | Wind** | Luminosity | Snow |
|---|---|---|---|---|---|---|---|
| 1777923530 | 25° C | 24% | - | 0 mm | - | - | - |
| 1777923223 | 25° C | 25% | - | 0 mm | - | - | - |
| 1777922920 | 25.56° C | 25% | - | 0 mm | - | - | - |
| 1777922616 | 25.56° C | 27% | - | 0 mm | - | - | - |
| 1777922313 | 25° C | 26% | - | 0 mm | - | - | - |
| 1777922009 | 25° C | 27% | - | 0 mm | - | - | - |
| 1777921706 | 24.44° C | 28% | - | 0 mm | - | - | - |
| 1777921096 | 24.44° C | 28% | - | 0 mm | - | - | - |
| 1777920792 | 25° C | 27% | - | 0 mm | - | - | - |
| 1777920486 | 23.33° C | 30% | - | 0 mm | - | - | - |
| 1777919879 | 22.78° C | 31% | - | 0 mm | - | - | - |
| 1777919575 | 23.33° C | 29% | - | 0 mm | - | - | - |
| 1777919268 | 23.33° C | 30% | - | 0 mm | - | - | - |
| 1777918964 | 22.78° C | 31% | - | 0 mm | - | - | - |
| 1777918657 | 22.78° C | 32% | - | 0 mm | - | - | - |
| 1777918353 | 22.22° C | 34% | - | 0 mm | - | - | - |
| 1777918049 | 21.67° C | 34% | - | 0 mm | - | - | - |
| 1777917745 | 21.67° C | 35% | - | 0 mm | - | - | - |
| 1777917442 | 21.67° C | 35% | - | 0 mm | - | - | - |
| 1777917137 | 21.11° C | 34% | - | 0 mm | - | - | - |
| 1777916833 | 21.11° C | 34% | - | 0 mm | - | - | - |
| 1777916529 | 20.56° C | 34% | - | 0 mm | - | - | - |
| 1777916222 | 21.11° C | 34% | - | 0 mm | - | - | - |
| 1777915615 | 20° C | 36% | - | 0 mm | - | - | - |
| 1777915312 | 20° C | 38% | - | 0 mm | - | - | - |
* Rain latest 24 hours (hover to see other rain measurements)
** Current wind speed in m/s (hover to see current wind gust speed)